Sõidu kokkuvõte (Rada: A1-Ring | Hooaeg: 19 | Sõit: 3 | Grupp: Elite)

Hooaeg:  Sõit:

Vali teine grupp:

Koht Progr Rehvid Riik Mängija nimi Sõiduaeg Ringe Peatusi Parim ring Keskmine kiirus Parim peatus
01. Muutusi ei ole ±0 Michelini   Toygun Senler1 1h24:20.204 71 3 1:08.996 218.48km/h 10.235s
02. +9 +9 Michelini   Jari Aareskoski3 + 21.570 71 2 1:09.739 217.55km/h 8.529s
03. +3 +3 Michelini   Edvinas Pranculevicius + 26.009 71 2 1:09.897 217.36km/h 13.002s
04. +4 +4 Michelini   João Monteiro + 28.610 71 2 1:09.770 217.25km/h 11.681s
05. +10 +10 Michelini   Joan Centellas + 43.578 71 2 1:09.960 216.62km/h 10.996s
06. -2 -2 Michelini   Rui Fonseca + 46.176 71 3 1:09.762 216.51km/h 11.904s
07. +5 +5 Michelini   Nuno Vicente + 46.379 71 2 1:09.843 216.50km/h 11.599s
08. +6 +6 Michelini   Marek Marchewka + 47.486 71 2 1:09.808 216.45km/h 11.863s
09. -4 -4 Michelini   Jan Zaluski + 48.440 71 2 1:09.947 216.41km/h 14.660s
10. -8 -8 Michelini   Zdenek Hladik + 1:00.312 71 3 1:09.647 215.91km/h 13.177s
11. +2 +2 Michelini   Renato Svaiter + 1:01.109 71 2 1:10.137 215.87km/h 15.221s
12. +8 +8 Michelini   Laila Britāle + 1:09.322 70 2 1:10.075 215.53km/h 11.325s
13. -3 -3 Michelini   Aleksej Sutkin + 1:10.966 70 3 1:09.315 215.46km/h 13.934s
14. +4 +4 Michelini   Martin Rosina + 1:20.478 70 2 1:10.352 215.06km/h 15.606s
15. +2 +2 Michelini   Denis Grahov + 1:36.876 70 2 1:10.543 214.38km/h 13.597s
16. -7 -7 Michelini   Martynas Molneris + 1:38.077 70 3 1:10.077 214.33km/h 11.021s
17. +4 +4 Michelini   Tomasz Kaminski + 1:46.064 70 2 1:10.340 214.00km/h 11.977s
18. -11 -11 Michelini   Wagner Souza + 1:48.027 70 3 1:10.071 213.91km/h 14.857s
19. +5 +5 Michelini   Rimantas Sagatas + 1:52.924 70 2 1:10.427 213.71km/h 14.486s
20. +6 +6 Dunnolop   Michalis Marolachakis + 1:53.123 70 1 1:11.063 213.70km/h 14.732s
21. +1 +1 Michelini   Filipe Miguel + 1:56.269 70 2 1:10.680 213.57km/h 17.555s
22. -3 -3 Michelini   Vitor Novo + 1:56.609 70 2 1:10.643 213.56km/h 16.302s
23. -7 -7 Dunnolop   Daniele Ambroggi + 2:01.256 70 3 1:10.334 213.37km/h 13.662s
24. +11 +11 Dunnolop   Leandro Sereno2 + 2:04.447 70 1 1:11.287 213.24km/h 11.368s
25. +4 +4 Michelini   Lucas Secundo Abreu + 2:36.791 69 1 1:11.501 211.92km/h 21.729s
26. -23 -23 Michelini   Vladimir Islentiev2 + 3:13.742 69 2 1:09.861 210.42km/h 10.439s
27. +3 +3 Badyear   Lee Ifans + 3:14.942 69 4 1:10.733 210.38km/h 14.270s
28. +3 +3 Dunnolop   Oli Jais + 3:46.550 68 3 1:11.324 209.12km/h 10.282s
29. -1 -1 Badyear   Michael Monaco + 4:14.844 68 1 1:13.272 208.01km/h 18.072s
30. +4 +4 Dunnolop   Andrius Talandzevicius + 4:38.780 67 1 1:13.543 207.07km/h 13.773s
31. -8 -8 Badyear   Toni Söyrinki + 4:39.101 67 2 1:13.431 207.06km/h 15.875s
32. -5 -5 Badyear   Michał Smiatacz + 4:51.719 67 2 1:13.079 206.57km/h 22.399s
33. -8 -8 Dunnolop   Andy Zavarin + 5:40.540 67 3 1:13.369 204.71km/h 21.069s
34. +4 +4 Pipirelli   Philipp Hartmann + 6:28.726 66 2 1:14.733 202.89km/h 14.383s
35. +1 +1 Pipirelli   Mikko Heikkinen + 6:33.041 66 2 1:14.447 202.73km/h 18.371s
36. -3 -3 Dunnolop   Kostas Farsalinos + 6:43.061 66 4 1:13.044 202.36km/h 18.344s
37. Muutusi ei ole ±0 Pipirelli   Craig Templeman + 6:54.816 65 2 1:15.030 201.93km/h 16.907s
38. +1 +1 Pipirelli   Martynas Atkočius + 7:26.866 65 2 1:15.307 200.75km/h 15.386s
Ei klassifitseerunud   (112% sõidu aeg: +10:07.224s)
39. -7 -7 Dunnolop   Gabriel Toma Tehniline probleem 47 2 1:11.108    13.916s